METAR Data
IDs: Format: Raw Decoded Include TAF

Data at: 1020 UTC 26 Sep 2018

KMKG 260955Z 31010G20KT 10SM OVC036 15/08 A2992 RMK AO2 SLP130 T01500083
KMKG 260918Z AUTO 30014G21KT 10SM SCT026 BKN033 15/08 A2991 RMK AO2 T01500083
KMKG 260908Z AUTO 31015G22KT 10SM BKN026 OVC034 15/09 A2991 RMK AO2 T01500089
KMKG 260855Z AUTO 30013G20KT 10SM SCT026 OVC033 16/09 A2991 RMK AO2 PK WND 27027/0842 SLP125 60000 T01560094 53016
KMKG 260755Z AUTO 29015G21KT 10SM BKN021 OVC026 16/12 A2988 RMK AO2 RAB23E42 SLP116 P0000 T01610117
KMKG 260728Z AUTO 30013G21KT 9SM -RA FEW015 BKN028 OVC034 16/13 A2988 RMK AO2 RAB23 P0000 T01610128
KMKG 260718Z AUTO 30012G21KT 10SM FEW015 SCT025 OVC034 17/13 A2988 RMK AO2 T01670128
KMKG 260655Z AUTO 31014G24KT 10SM BKN018 BKN025 OVC038 17/13 A2988 RMK AO2 PK WND 29026/0634 SLP114 T01670128
KMKG 260555Z AUTO 29016G23KT 10SM FEW017 BKN023 OVC029 18/13 A2986 RMK AO2 RAE0459 SLP109 P0000 60000 T01780133 10217 20178 51019
KMKG 260455Z AUTO 29011G20KT 10SM -RA FEW014 BKN020 OVC045 18/15 A2984 RMK AO2 RAB49 SLP103 P0000 T01830150 402500183
KMKG 260422Z AUTO 28008KT 10SM SCT016 BKN024 OVC038 19/15 A2984 RMK AO2 CIG 017 RWY 14 T01890150
KMKG 260414Z AUTO 28009G17KT 10SM FEW015 BKN036 OVC043 19/15 A2984 RMK AO2 CIG 024 RWY 14 T01890150
KMKG 260406Z AUTO 29011G18KT 10SM FEW014 BKN025 OVC040 19/15 A2984 RMK AO2 T01890150
KMKG 260355Z AUTO 28012KT 10SM FEW014 BKN035 OVC042 19/16 A2983 RMK AO2 SLP100 T01890156
KMKG 260329Z AUTO 26011KT 10SM FEW012 BKN017 OVC041 19/16 A2982 RMK AO2 T01940161
KMKG 260255Z 23005KT 10SM BKN036 BKN200 19/16 A2980 RMK AO2 SLP089 LAST 60000 T01890161 53012
KMKG 260155Z 29007KT 10SM BKN200 19/16 A2978 RMK AO2 SLP082 T01940161
KMKG 260055Z 22012KT 10SM FEW030 SCT037 BKN150 22/18 A2975 RMK AO2 LTG DSNT SE RAB01E38 SLP071 P0000 T02170183
KMKG 252355Z 19009KT 10SM SCT090 BKN150 23/19 A2976 RMK AO2 SLP077 T02280189 10244 20222 58010
KMKG 252255Z 21008KT 10SM BKN090 23/19 A2978 RMK AO2 SLP082 T02280189
KMKG 252155Z 21012KT 10SM FEW011 BKN200 23/18 A2978 RMK AO2 SLP081 T02330183
KMKG 252055Z 22013G18KT 10SM FEW011 SCT060 24/19 A2980 RMK AO2 SLP086 T02440189 58028
KMKG 251955Z 20012KT 10SM FEW010 BKN060 24/19 A2983 RMK AO2 SLP096 T02440194
KMKG 251940Z 20012KT 10SM FEW009 SCT027 BKN060 23/19 A2984 RMK AO2 T02330194
KMKG 251914Z 20011KT 10SM SCT011 SCT021 OVC060 24/19 A2986 RMK AO2 CIG 022 RWY 14 T02390194
KMKG 251855Z 20010KT 10SM FEW006 BKN010 BKN021 24/19 A2986 RMK AO2 CIG 007V012 SLP108 T02440189
KMKG 251803Z 19012KT 10SM BKN007 23/19 A2988 RMK AO2 T02280189
KMKG 251755Z 19012KT 10SM SCT008 BKN014 23/19 A2988 RMK AO2 SLP116 60001 T02330189 10250 20194 56004
KMKG 251750Z 20011KT 10SM FEW008 SCT012 BKN017 24/19 A2988 RMK AO2 CIG 014V024
KMKG 251739Z 19015KT 10SM BKN015 BKN055 24/19 A2987 RMK AO2 T02440194
KMKG 251705Z 18009KT 10SM OVC012 23/19 A2988 RMK AO2 T02330194
KMKG 251655Z 18008KT 10SM BKN009 OVC013 23/19 A2988 RMK AO2 SLP114 T02330194
KMKG 251638Z 20007KT 10SM BKN007 OVC015 23/19 A2988 RMK AO2 CIG 005V010 T02280194
KMKG 251555Z 19009KT 2 1/2SM BR BKN005 BKN014 OVC050 22/19 A2989 RMK AO2 SFC VIS 6 SLP119 T02170189
KMKG 251539Z 19007KT 2 1/2SM BR SCT005 BKN014 OVC049 22/19 A2990 RMK AO2 SFC VIS 6 CIG 005 RWY 14 T02170189
KMKG 251517Z 20006KT 2 1/2SM BR BKN005 BKN009 OVC039 21/19 A2990 RMK AO2 SFC VIS 3 T02110189
KMKG 251510Z 19007KT 1/2SM R32/P6000FT BR BKN005 BKN011 OVC039 21/19 A2991 RMK AO2 SFC VIS 3 T02110189
KMKG 251455Z 22007KT 1/2SM R32/P6000FT BR BKN004 OVC009 21/19 A2991 RMK AO2 SFC VIS 1 1/4 SLP127 60001 T02060189 55002
KMKG 251355Z 19006KT 1/2SM R32/P6000FT BR OVC003 20/19 A2990 RMK AO2 SFC VIS 1 1/4 RAB04E32 SLP123 P0001 T02000189
KMKG 251255Z 19009KT 1/2SM R32/2400V4000FT FG VV002 19/18 A2992 RMK AO2 SLP128 T01940183
KMKG 251250Z 20008KT 1/2SM R32/2400V4000FT FG VV002 19/18 A2992 RMK AO2
KMKG 251224Z 19009KT 1/4SM R32/2600V3500FT FG VV002 19/18 A2991 RMK AO2 TWR VIS 1/2 T01940183
KMKG 251155Z 19006KT 1/2SM R32/P6000FT FG OVC002 19/18 A2991 RMK AO2 SLP127 T01940183 10206 20189 51005
KMKG 251125Z 20009KT 1/2SM R32/P6000FT BR OVC002 19/18 A2992 RMK AO2 SFC VIS 3/4 T01940183
KMKG 251055Z 20009KT 6SM R32/5000VP6000FT BR OVC004 20/18 A2991 RMK AO2 SLP127 T02000178
KMKG 251027Z 20007KT 6SM BR OVC004 19/18 A2991 RMK AO2 T01940178
KMKG 250955Z 20011KT 8SM OVC006 20/18 A2991 RMK AO2 CIG 004V011 SLP126 T02000183
KMKG 250855Z AUTO 20005KT 10SM BKN008 OVC043 21/18 A2990 RMK AO2 CIG 006V011 SLP121 T02060183 58008
KMKG 250838Z AUTO 19008KT 10SM BKN008 BKN040 OVC065 21/18 A2990 RMK AO2 T02060183
KMKG 250823Z AUTO 19007KT 10SM SCT009 BKN029 OVC065 21/18 A2990 RMK AO2 CIG 008 RWY 14 T02060183
KMKG 250816Z AUTO 19006KT 10SM SCT010 BKN029 OVC065 21/18 A2990 RMK AO2 CIG 008 RWY 14 T02060183
KMKG 250808Z AUTO 19007KT 10SM BKN009 BKN026 OVC040 21/18 A2990 RMK AO2 CIG 007V015 T02060183
KMKG 250755Z AUTO 18008KT 10SM BKN010 OVC032 20/18 A2991 RMK AO2 CIG 008V015 SLP125 T02000178
KMKG 250742Z AUTO 17004KT 10SM BKN010 BKN034 OVC060 20/18 A2991 RMK AO2 CIG 009V013 T02000178
KMKG 250655Z AUTO 16004KT 10SM SCT046 OVC070 19/17 A2991 RMK AO2 SLP126 T01940172
KMKG 250555Z AUTO 14006KT 10SM FEW036 BKN060 BKN080 19/17 A2992 RMK AO2 SLP130 60000 T01890172 10211 20189 58014
KMKG 250455Z AUTO 14007KT 10SM SCT030 OVC037 19/17 A2994 RMK AO2 RAB13E37 SLP137 P0000 T01940172 402440100
KMKG 250424Z AUTO 15007KT 7SM -RA FEW009 BKN039 OVC047 19/17 A2995 RMK AO2 RAB13 P0000 T01940172
KMKG 250355Z AUTO 14008KT 10SM FEW032 OVC043 19/17 A2995 RMK AO2 DZE0256 SLPNO P0000 T01940167
KMKG 250333Z AUTO 14007KT 10SM BKN030 OVC042 19/17 A2996 RMK AO2 DZE0256 P0000 T01940167
KMKG 250255Z 14006KT 10SM -DZ FEW012 OVC021 19/17 A2996 RMK AO2 DZB12 SLP145 LAST P0000 60000 T01940172 50001
KMKG 250155Z 14007KT 10SM OVC011 19/17 A2997 RMK AO2 SLP146 T01940167
KMKG 250055Z 13010KT 10SM OVC010 19/17 A2997 RMK AO2 SLP147 T01940167
KMKG 242355Z 11011KT 10SM OVC011 19/16 A2996 RMK AO2 RAB22E32 SLP145 P0000 60000 T01940161 10244 20194 58008
KMKG 242255Z 10008KT 10SM OVC013 20/16 A2997 RMK AO2 SLP150 T02000161
KMKG 242248Z 11008KT 10SM OVC014 20/16 A2998 RMK AO2 T02000161